sensor_id;sensor_type;location;lat;lon;timestamp;temperature;humidity
20590;DHT22;10453;50.810;12.540;2023-10-09T00:02:04;11.10;99.90
20590;DHT22;10453;50.810;12.540;2023-10-09T00:06:24;11.10;99.90
20590;DHT22;10453;50.810;12.540;2023-10-09T00:10:54;11.20;99.90
20590;DHT22;10453;50.810;12.540;2023-10-09T00:15:15;11.20;99.90
20590;DHT22;10453;50.810;12.540;2023-10-09T00:19:35;11.30;99.90
20590;DHT22;10453;50.810;12.540;2023-10-09T00:23:54;11.40;99.90
20590;DHT22;10453;50.810;12.540;2023-10-09T00:28:16;11.50;99.90
20590;DHT22;10453;50.810;12.540;2023-10-09T00:32:36;11.50;99.90
20590;DHT22;10453;50.810;12.540;2023-10-09T00:36:54;11.40;99.90
20590;DHT22;10453;50.810;12.540;2023-10-09T00:41:12;11.50;99.90
20590;DHT22;10453;50.810;12.540;2023-10-09T00:45:36;11.60;99.90
20590;DHT22;10453;50.810;12.540;2023-10-09T00:50:02;11.70;99.90
20590;DHT22;10453;50.810;12.540;2023-10-09T00:54:34;11.70;99.90
20590;DHT22;10453;50.810;12.540;2023-10-09T00:58:59;11.80;99.90
20590;DHT22;10453;50.810;12.540;2023-10-09T01:03:23;11.90;99.90
20590;DHT22;10453;50.810;12.540;2023-10-09T01:07:41;11.90;99.90
20590;DHT22;10453;50.810;12.540;2023-10-09T01:12:01;12.00;99.90
20590;DHT22;10453;50.810;12.540;2023-10-09T01:16:27;12.00;99.90
20590;DHT22;10453;50.810;12.540;2023-10-09T01:20:48;12.10;99.90
20590;DHT22;10453;50.810;12.540;2023-10-09T01:25:05;12.10;99.90
20590;DHT22;10453;50.810;12.540;2023-10-09T01:29:23;12.20;99.90
20590;DHT22;10453;50.810;12.540;2023-10-09T01:33:44;12.30;99.90
20590;DHT22;10453;50.810;12.540;2023-10-09T01:38:02;12.40;99.90
20590;DHT22;10453;50.810;12.540;2023-10-09T01:42:20;12.50;99.90
20590;DHT22;10453;50.810;12.540;2023-10-09T01:46:43;12.40;99.90
20590;DHT22;10453;50.810;12.540;2023-10-09T01:51:03;12.60;99.90
20590;DHT22;10453;50.810;12.540;2023-10-09T01:55:22;12.60;99.90
20590;DHT22;10453;50.810;12.540;2023-10-09T01:59:52;12.60;99.90
20590;DHT22;10453;50.810;12.540;2023-10-09T02:04:12;12.70;99.90
20590;DHT22;10453;50.810;12.540;2023-10-09T02:08:31;12.70;99.90
20590;DHT22;10453;50.810;12.540;2023-10-09T02:12:53;12.80;99.90
20590;DHT22;10453;50.810;12.540;2023-10-09T02:17:15;12.60;99.90
20590;DHT22;10453;50.810;12.540;2023-10-09T02:21:35;12.60;99.90
20590;DHT22;10453;50.810;12.540;2023-10-09T02:25:59;12.70;99.90
20590;DHT22;10453;50.810;12.540;2023-10-09T02:30:21;12.70;99.90
20590;DHT22;10453;50.810;12.540;2023-10-09T02:34:44;12.80;99.90
20590;DHT22;10453;50.810;12.540;2023-10-09T02:39:03;12.90;99.90
20590;DHT22;10453;50.810;12.540;2023-10-09T02:43:25;12.90;99.90
20590;DHT22;10453;50.810;12.540;2023-10-09T02:47:43;12.90;99.90
20590;DHT22;10453;50.810;12.540;2023-10-09T02:52:05;12.90;99.90
20590;DHT22;10453;50.810;12.540;2023-10-09T02:56:25;13.00;99.90
20590;DHT22;10453;50.810;12.540;2023-10-09T03:00:53;13.10;99.90
20590;DHT22;10453;50.810;12.540;2023-10-09T03:05:10;13.20;99.90
20590;DHT22;10453;50.810;12.540;2023-10-09T03:09:29;13.20;99.90
20590;DHT22;10453;50.810;12.540;2023-10-09T03:13:49;13.30;99.90
20590;DHT22;10453;50.810;12.540;2023-10-09T03:18:07;13.30;99.90
20590;DHT22;10453;50.810;12.540;2023-10-09T03:22:25;13.40;99.90
20590;DHT22;10453;50.810;12.540;2023-10-09T03:26:42;13.30;99.90
20590;DHT22;10453;50.810;12.540;2023-10-09T03:31:02;13.30;99.90
20590;DHT22;10453;50.810;12.540;2023-10-09T03:35:23;13.40;99.90
20590;DHT22;10453;50.810;12.540;2023-10-09T03:39:44;13.40;99.90
20590;DHT22;10453;50.810;12.540;2023-10-09T03:44:04;13.30;99.90
20590;DHT22;10453;50.810;12.540;2023-10-09T03:48:23;13.50;99.90
20590;DHT22;10453;50.810;12.540;2023-10-09T03:52:43;13.50;99.90
20590;DHT22;10453;50.810;12.540;2023-10-09T03:57:01;13.50;99.90
20590;DHT22;10453;50.810;12.540;2023-10-09T04:01:19;13.50;99.90
20590;DHT22;10453;50.810;12.540;2023-10-09T04:05:44;13.50;99.90
20590;DHT22;10453;50.810;12.540;2023-10-09T04:10:02;13.60;99.90
20590;DHT22;10453;50.810;12.540;2023-10-09T04:14:40;13.60;99.90
20590;DHT22;10453;50.810;12.540;2023-10-09T04:19:11;13.60;99.90
20590;DHT22;10453;50.810;12.540;2023-10-09T04:23:29;13.70;99.90
20590;DHT22;10453;50.810;12.540;2023-10-09T04:28:07;13.80;99.90
20590;DHT22;10453;50.810;12.540;2023-10-09T04:32:36;13.70;99.90
20590;DHT22;10453;50.810;12.540;2023-10-09T04:36:57;13.70;99.90
20590;DHT22;10453;50.810;12.540;2023-10-09T04:41:18;13.70;99.90
20590;DHT22;10453;50.810;12.540;2023-10-09T04:45:44;13.60;99.90
20590;DHT22;10453;50.810;12.540;2023-10-09T04:50:25;13.60;99.90
20590;DHT22;10453;50.810;12.540;2023-10-09T04:54:48;13.60;99.90
20590;DHT22;10453;50.810;12.540;2023-10-09T04:59:25;13.60;99.90
20590;DHT22;10453;50.810;12.540;2023-10-09T05:03:42;13.60;99.90
20590;DHT22;10453;50.810;12.540;2023-10-09T05:08:02;13.60;99.90
20590;DHT22;10453;50.810;12.540;2023-10-09T05:12:35;13.70;99.90
20590;DHT22;10453;50.810;12.540;2023-10-09T05:16:58;13.80;99.90
20590;DHT22;10453;50.810;12.540;2023-10-09T05:21:20;13.90;99.90
20590;DHT22;10453;50.810;12.540;2023-10-09T05:26:01;13.90;99.90
20590;DHT22;10453;50.810;12.540;2023-10-09T05:30:38;13.90;99.90
20590;DHT22;10453;50.810;12.540;2023-10-09T05:34:58;13.90;99.90
20590;DHT22;10453;50.810;12.540;2023-10-09T05:39:16;13.90;99.90
20590;DHT22;10453;50.810;12.540;2023-10-09T05:43:47;13.80;99.90
20590;DHT22;10453;50.810;12.540;2023-10-09T05:48:23;13.80;99.90
20590;DHT22;10453;50.810;12.540;2023-10-09T05:52:40;13.70;99.90
20590;DHT22;10453;50.810;12.540;2023-10-09T05:56:58;13.70;99.90
20590;DHT22;10453;50.810;12.540;2023-10-09T06:01:34;13.70;99.90
20590;DHT22;10453;50.810;12.540;2023-10-09T06:06:17;13.80;99.90
20590;DHT22;10453;50.810;12.540;2023-10-09T06:10:52;13.80;99.90
20590;DHT22;10453;50.810;12.540;2023-10-09T06:15:23;13.90;99.90
20590;DHT22;10453;50.810;12.540;2023-10-09T06:20:10;14.00;99.90
20590;DHT22;10453;50.810;12.540;2023-10-09T06:24:47;14.00;99.90
20590;DHT22;10453;50.810;12.540;2023-10-09T06:29:10;14.10;99.90
20590;DHT22;10453;50.810;12.540;2023-10-09T06:33:31;14.00;99.90
20590;DHT22;10453;50.810;12.540;2023-10-09T06:38:09;14.00;99.90
20590;DHT22;10453;50.810;12.540;2023-10-09T06:42:39;14.10;99.90
20590;DHT22;10453;50.810;12.540;2023-10-09T06:46:56;14.10;99.90
20590;DHT22;10453;50.810;12.540;2023-10-09T06:51:24;14.20;99.90
20590;DHT22;10453;50.810;12.540;2023-10-09T06:55:42;14.20;99.90
20590;DHT22;10453;50.810;12.540;2023-10-09T07:00:06;14.20;99.90
20590;DHT22;10453;50.810;12.540;2023-10-09T07:04:52;14.10;99.90
20590;DHT22;10453;50.810;12.540;2023-10-09T07:09:13;14.10;99.90
20590;DHT22;10453;50.810;12.540;2023-10-09T07:13:30;14.10;99.90
20590;DHT22;10453;50.810;12.540;2023-10-09T07:17:54;14.10;99.90
20590;DHT22;10453;50.810;12.540;2023-10-09T07:22:13;14.00;99.90
20590;DHT22;10453;50.810;12.540;2023-10-09T07:26:40;14.10;99.90
20590;DHT22;10453;50.810;12.540;2023-10-09T07:31:04;14.10;99.90
20590;DHT22;10453;50.810;12.540;2023-10-09T07:35:26;14.00;99.90
20590;DHT22;10453;50.810;12.540;2023-10-09T07:40:02;14.10;99.90
20590;DHT22;10453;50.810;12.540;2023-10-09T07:44:24;14.10;99.90
20590;DHT22;10453;50.810;12.540;2023-10-09T07:48:55;14.20;99.90
20590;DHT22;10453;50.810;12.540;2023-10-09T07:53:12;14.20;99.90
20590;DHT22;10453;50.810;12.540;2023-10-09T07:57:35;14.30;99.90
20590;DHT22;10453;50.810;12.540;2023-10-09T08:01:59;14.30;99.90
20590;DHT22;10453;50.810;12.540;2023-10-09T08:06:19;14.30;99.90
20590;DHT22;10453;50.810;12.540;2023-10-09T08:10:55;14.30;99.90
20590;DHT22;10453;50.810;12.540;2023-10-09T08:15:35;14.20;99.90
20590;DHT22;10453;50.810;12.540;2023-10-09T08:20:09;14.20;99.90
20590;DHT22;10453;50.810;12.540;2023-10-09T08:24:30;14.20;99.90
20590;DHT22;10453;50.810;12.540;2023-10-09T08:29:24;14.10;99.90
20590;DHT22;10453;50.810;12.540;2023-10-09T08:33:51;14.20;99.90
20590;DHT22;10453;50.810;12.540;2023-10-09T08:38:21;14.30;99.90
20590;DHT22;10453;50.810;12.540;2023-10-09T08:42:43;14.40;99.90
20590;DHT22;10453;50.810;12.540;2023-10-09T08:47:00;14.60;99.90
20590;DHT22;10453;50.810;12.540;2023-10-09T08:51:18;14.60;99.90
20590;DHT22;10453;50.810;12.540;2023-10-09T08:55:37;14.60;99.90
20590;DHT22;10453;50.810;12.540;2023-10-09T08:59:57;14.50;99.90
20590;DHT22;10453;50.810;12.540;2023-10-09T09:04:34;14.50;99.90
20590;DHT22;10453;50.810;12.540;2023-10-09T09:08:53;14.60;99.90
20590;DHT22;10453;50.810;12.540;2023-10-09T09:13:17;14.60;99.90
20590;DHT22;10453;50.810;12.540;2023-10-09T09:17:35;14.60;99.90
20590;DHT22;10453;50.810;12.540;2023-10-09T09:21:57;14.70;99.90
20590;DHT22;10453;50.810;12.540;2023-10-09T09:26:38;14.70;99.90
20590;DHT22;10453;50.810;12.540;2023-10-09T09:31:08;14.90;99.90
20590;DHT22;10453;50.810;12.540;2023-10-09T09:35:40;14.90;99.90
20590;DHT22;10453;50.810;12.540;2023-10-09T09:40:12;14.80;99.90
20590;DHT22;10453;50.810;12.540;2023-10-09T09:44:48;15.00;99.90
20590;DHT22;10453;50.810;12.540;2023-10-09T09:49:06;14.90;99.90
20590;DHT22;10453;50.810;12.540;2023-10-09T09:53:34;14.80;99.90
20590;DHT22;10453;50.810;12.540;2023-10-09T09:57:52;14.70;99.90
20590;DHT22;10453;50.810;12.540;2023-10-09T10:02:11;14.70;99.90
20590;DHT22;10453;50.810;12.540;2023-10-09T10:06:39;14.60;99.90
20590;DHT22;10453;50.810;12.540;2023-10-09T10:10:59;14.50;99.90
20590;DHT22;10453;50.810;12.540;2023-10-09T10:15:22;14.60;99.90
20590;DHT22;10453;50.810;12.540;2023-10-09T10:20:04;14.70;99.90
20590;DHT22;10453;50.810;12.540;2023-10-09T10:24:42;14.70;99.90
20590;DHT22;10453;50.810;12.540;2023-10-09T10:29:17;14.90;99.90
20590;DHT22;10453;50.810;12.540;2023-10-09T10:38:29;14.90;99.90
20590;DHT22;10453;50.810;12.540;2023-10-09T10:43:07;14.90;99.90
20590;DHT22;10453;50.810;12.540;2023-10-09T10:47:30;14.90;99.90
20590;DHT22;10453;50.810;12.540;2023-10-09T10:51:53;14.90;99.90
20590;DHT22;10453;50.810;12.540;2023-10-09T10:56:37;14.90;99.90
20590;DHT22;10453;50.810;12.540;2023-10-09T11:00:55;15.00;99.90
20590;DHT22;10453;50.810;12.540;2023-10-09T11:05:15;14.90;99.90
20590;DHT22;10453;50.810;12.540;2023-10-09T11:14:35;14.80;99.90
20590;DHT22;10453;50.810;12.540;2023-10-09T11:19:02;14.80;99.90
20590;DHT22;10453;50.810;12.540;2023-10-09T11:23:31;14.90;99.90
20590;DHT22;10453;50.810;12.540;2023-10-09T11:27:51;15.00;99.90
20590;DHT22;10453;50.810;12.540;2023-10-09T11:32:15;15.00;99.90
20590;DHT22;10453;50.810;12.540;2023-10-09T11:36:36;15.10;99.90
20590;DHT22;10453;50.810;12.540;2023-10-09T11:40:53;15.10;99.90
20590;DHT22;10453;50.810;12.540;2023-10-09T11:45:24;15.20;99.90
20590;DHT22;10453;50.810;12.540;2023-10-09T11:49:48;15.00;99.90
20590;DHT22;10453;50.810;12.540;2023-10-09T11:54:29;14.90;99.90
20590;DHT22;10453;50.810;12.540;2023-10-09T11:58:49;14.90;99.90
20590;DHT22;10453;50.810;12.540;2023-10-09T12:03:07;14.90;99.90
20590;DHT22;10453;50.810;12.540;2023-10-09T12:07:25;14.90;99.90
20590;DHT22;10453;50.810;12.540;2023-10-09T12:11:42;14.80;99.90
20590;DHT22;10453;50.810;12.540;2023-10-09T12:16:19;14.80;99.90
20590;DHT22;10453;50.810;12.540;2023-10-09T12:20:39;14.80;99.90
20590;DHT22;10453;50.810;12.540;2023-10-09T12:24:56;14.80;99.90
20590;DHT22;10453;50.810;12.540;2023-10-09T12:29:14;14.80;99.90
20590;DHT22;10453;50.810;12.540;2023-10-09T12:33:31;14.80;99.90
20590;DHT22;10453;50.810;12.540;2023-10-09T12:37:49;14.80;99.90
20590;DHT22;10453;50.810;12.540;2023-10-09T12:42:07;15.00;99.90
20590;DHT22;10453;50.810;12.540;2023-10-09T12:46:26;14.90;99.90
20590;DHT22;10453;50.810;12.540;2023-10-09T12:50:43;14.90;99.90
20590;DHT22;10453;50.810;12.540;2023-10-09T12:55:04;15.00;99.90
20590;DHT22;10453;50.810;12.540;2023-10-09T12:59:27;14.90;99.90
20590;DHT22;10453;50.810;12.540;2023-10-09T13:03:44;14.90;99.90
20590;DHT22;10453;50.810;12.540;2023-10-09T13:08:06;14.90;99.90
20590;DHT22;10453;50.810;12.540;2023-10-09T13:12:31;15.00;99.90
20590;DHT22;10453;50.810;12.540;2023-10-09T13:16:49;15.00;99.90
20590;DHT22;10453;50.810;12.540;2023-10-09T13:21:10;14.90;99.90
20590;DHT22;10453;50.810;12.540;2023-10-09T13:25:28;15.10;99.90
20590;DHT22;10453;50.810;12.540;2023-10-09T13:29:57;15.00;99.90
20590;DHT22;10453;50.810;12.540;2023-10-09T13:34:22;15.10;99.90
20590;DHT22;10453;50.810;12.540;2023-10-09T13:38:46;15.10;99.90
20590;DHT22;10453;50.810;12.540;2023-10-09T13:43:03;15.00;99.90
20590;DHT22;10453;50.810;12.540;2023-10-09T13:47:22;14.90;99.90
20590;DHT22;10453;50.810;12.540;2023-10-09T13:51:46;15.00;99.90
20590;DHT22;10453;50.810;12.540;2023-10-09T13:56:03;15.00;99.90
20590;DHT22;10453;50.810;12.540;2023-10-09T14:00:24;15.00;99.90
20590;DHT22;10453;50.810;12.540;2023-10-09T14:04:51;15.00;99.90
20590;DHT22;10453;50.810;12.540;2023-10-09T14:09:09;15.00;99.90
20590;DHT22;10453;50.810;12.540;2023-10-09T14:13:26;14.90;99.90
20590;DHT22;10453;50.810;12.540;2023-10-09T14:17:45;15.00;99.90
20590;DHT22;10453;50.810;12.540;2023-10-09T14:22:04;14.90;99.90
20590;DHT22;10453;50.810;12.540;2023-10-09T14:26:26;14.80;99.90
20590;DHT22;10453;50.810;12.540;2023-10-09T14:30:43;14.80;99.90
20590;DHT22;10453;50.810;12.540;2023-10-09T14:35:01;14.80;99.90
20590;DHT22;10453;50.810;12.540;2023-10-09T14:39:19;14.70;99.90
20590;DHT22;10453;50.810;12.540;2023-10-09T14:43:36;14.80;99.90
20590;DHT22;10453;50.810;12.540;2023-10-09T14:47:54;14.80;99.90
20590;DHT22;10453;50.810;12.540;2023-10-09T14:52:15;14.90;99.90
20590;DHT22;10453;50.810;12.540;2023-10-09T14:56:37;14.80;99.90
20590;DHT22;10453;50.810;12.540;2023-10-09T15:00:55;14.80;99.90
20590;DHT22;10453;50.810;12.540;2023-10-09T15:05:12;14.80;99.90
20590;DHT22;10453;50.810;12.540;2023-10-09T15:09:30;14.70;99.90
20590;DHT22;10453;50.810;12.540;2023-10-09T15:13:52;14.70;99.90
20590;DHT22;10453;50.810;12.540;2023-10-09T15:18:10;14.70;99.90
20590;DHT22;10453;50.810;12.540;2023-10-09T15:22:30;14.80;99.90
20590;DHT22;10453;50.810;12.540;2023-10-09T15:26:54;14.70;99.90
20590;DHT22;10453;50.810;12.540;2023-10-09T15:31:14;14.70;99.90
20590;DHT22;10453;50.810;12.540;2023-10-09T15:35:33;14.70;99.90
20590;DHT22;10453;50.810;12.540;2023-10-09T15:39:53;14.70;99.90
20590;DHT22;10453;50.810;12.540;2023-10-09T15:44:11;14.80;99.90
20590;DHT22;10453;50.810;12.540;2023-10-09T15:48:31;14.70;99.90
20590;DHT22;10453;50.810;12.540;2023-10-09T15:52:52;14.60;99.90
20590;DHT22;10453;50.810;12.540;2023-10-09T15:57:10;14.60;99.90
20590;DHT22;10453;50.810;12.540;2023-10-09T16:01:30;14.60;99.90
20590;DHT22;10453;50.810;12.540;2023-10-09T16:05:48;14.70;99.90
20590;DHT22;10453;50.810;12.540;2023-10-09T16:10:06;14.70;99.90
20590;DHT22;10453;50.810;12.540;2023-10-09T16:14:25;14.70;99.90
20590;DHT22;10453;50.810;12.540;2023-10-09T16:18:43;14.70;99.90
20590;DHT22;10453;50.810;12.540;2023-10-09T16:23:01;14.70;99.90
20590;DHT22;10453;50.810;12.540;2023-10-09T16:27:21;14.70;99.90
20590;DHT22;10453;50.810;12.540;2023-10-09T16:31:40;14.70;99.90
20590;DHT22;10453;50.810;12.540;2023-10-09T16:35:58;14.70;99.90
20590;DHT22;10453;50.810;12.540;2023-10-09T16:40:17;14.70;99.90
20590;DHT22;10453;50.810;12.540;2023-10-09T16:44:37;14.80;99.90
20590;DHT22;10453;50.810;12.540;2023-10-09T16:48:55;14.80;99.90
20590;DHT22;10453;50.810;12.540;2023-10-09T16:53:14;14.70;99.90
20590;DHT22;10453;50.810;12.540;2023-10-09T16:57:37;14.80;99.90
20590;DHT22;10453;50.810;12.540;2023-10-09T17:01:56;14.80;99.90
20590;DHT22;10453;50.810;12.540;2023-10-09T17:06:13;14.80;99.90
20590;DHT22;10453;50.810;12.540;2023-10-09T17:10:36;14.80;99.90
20590;DHT22;10453;50.810;12.540;2023-10-09T17:15:02;14.80;99.90
20590;DHT22;10453;50.810;12.540;2023-10-09T17:19:20;14.80;99.90
20590;DHT22;10453;50.810;12.540;2023-10-09T17:23:37;15.00;99.90
20590;DHT22;10453;50.810;12.540;2023-10-09T17:27:54;15.00;99.90
20590;DHT22;10453;50.810;12.540;2023-10-09T17:32:11;15.00;99.90
20590;DHT22;10453;50.810;12.540;2023-10-09T17:36:29;15.00;99.90
20590;DHT22;10453;50.810;12.540;2023-10-09T17:40:48;15.00;99.90
20590;DHT22;10453;50.810;12.540;2023-10-09T17:45:09;15.10;99.90
20590;DHT22;10453;50.810;12.540;2023-10-09T17:49:27;15.10;99.90
20590;DHT22;10453;50.810;12.540;2023-10-09T17:53:45;15.10;99.90
20590;DHT22;10453;50.810;12.540;2023-10-09T17:58:04;15.10;99.90
20590;DHT22;10453;50.810;12.540;2023-10-09T18:02:24;15.10;99.90
20590;DHT22;10453;50.810;12.540;2023-10-09T18:06:45;15.10;99.90
20590;DHT22;10453;50.810;12.540;2023-10-09T18:11:05;15.10;99.90
20590;DHT22;10453;50.810;12.540;2023-10-09T18:15:25;15.20;99.90
20590;DHT22;10453;50.810;12.540;2023-10-09T18:19:44;15.20;99.90
20590;DHT22;10453;50.810;12.540;2023-10-09T18:24:01;15.20;99.90
20590;DHT22;10453;50.810;12.540;2023-10-09T18:28:22;15.20;99.90
20590;DHT22;10453;50.810;12.540;2023-10-09T18:32:44;15.20;99.90
20590;DHT22;10453;50.810;12.540;2023-10-09T18:37:02;15.20;99.90
20590;DHT22;10453;50.810;12.540;2023-10-09T18:41:22;15.20;99.90
20590;DHT22;10453;50.810;12.540;2023-10-09T18:45:41;15.20;99.90
20590;DHT22;10453;50.810;12.540;2023-10-09T18:49:59;15.20;99.90
20590;DHT22;10453;50.810;12.540;2023-10-09T18:54:17;15.30;99.90
20590;DHT22;10453;50.810;12.540;2023-10-09T18:58:35;15.20;99.90
20590;DHT22;10453;50.810;12.540;2023-10-09T19:02:52;15.20;99.90
20590;DHT22;10453;50.810;12.540;2023-10-09T19:07:10;15.20;99.90
20590;DHT22;10453;50.810;12.540;2023-10-09T19:11:28;15.30;99.90
20590;DHT22;10453;50.810;12.540;2023-10-09T19:15:49;15.20;99.90
20590;DHT22;10453;50.810;12.540;2023-10-09T19:20:07;15.20;99.90
20590;DHT22;10453;50.810;12.540;2023-10-09T19:24:27;15.20;99.90
20590;DHT22;10453;50.810;12.540;2023-10-09T19:28:45;15.20;99.90
20590;DHT22;10453;50.810;12.540;2023-10-09T19:33:05;15.20;99.90
20590;DHT22;10453;50.810;12.540;2023-10-09T19:37:23;15.20;99.90
20590;DHT22;10453;50.810;12.540;2023-10-09T19:41:40;15.40;99.90
20590;DHT22;10453;50.810;12.540;2023-10-09T19:46:04;15.40;99.90
20590;DHT22;10453;50.810;12.540;2023-10-09T19:50:23;15.40;99.90
20590;DHT22;10453;50.810;12.540;2023-10-09T19:54:42;15.40;99.90
20590;DHT22;10453;50.810;12.540;2023-10-09T19:59:00;15.40;99.90
20590;DHT22;10453;50.810;12.540;2023-10-09T20:03:17;15.30;99.90
20590;DHT22;10453;50.810;12.540;2023-10-09T20:07:38;15.40;99.90
20590;DHT22;10453;50.810;12.540;2023-10-09T20:11:56;15.40;99.90
20590;DHT22;10453;50.810;12.540;2023-10-09T20:16:13;15.40;99.90
20590;DHT22;10453;50.810;12.540;2023-10-09T20:20:31;15.40;99.90
20590;DHT22;10453;50.810;12.540;2023-10-09T20:24:50;15.40;99.90
20590;DHT22;10453;50.810;12.540;2023-10-09T20:29:09;15.40;99.90
20590;DHT22;10453;50.810;12.540;2023-10-09T20:33:30;15.40;99.90
20590;DHT22;10453;50.810;12.540;2023-10-09T20:37:50;15.40;99.90
20590;DHT22;10453;50.810;12.540;2023-10-09T20:42:08;15.40;99.90
20590;DHT22;10453;50.810;12.540;2023-10-09T20:46:28;15.40;99.90
20590;DHT22;10453;50.810;12.540;2023-10-09T20:50:46;15.40;99.90
20590;DHT22;10453;50.810;12.540;2023-10-09T20:55:05;15.40;99.90
20590;DHT22;10453;50.810;12.540;2023-10-09T20:59:22;15.40;99.90
20590;DHT22;10453;50.810;12.540;2023-10-09T21:03:45;15.40;99.90
20590;DHT22;10453;50.810;12.540;2023-10-09T21:08:03;15.20;99.90
20590;DHT22;10453;50.810;12.540;2023-10-09T21:12:21;15.20;99.90
20590;DHT22;10453;50.810;12.540;2023-10-09T21:16:39;15.20;99.90
20590;DHT22;10453;50.810;12.540;2023-10-09T21:20:56;15.20;99.90
20590;DHT22;10453;50.810;12.540;2023-10-09T21:25:14;15.20;99.90
20590;DHT22;10453;50.810;12.540;2023-10-09T21:29:31;15.20;99.90
20590;DHT22;10453;50.810;12.540;2023-10-09T21:33:49;15.20;99.90
20590;DHT22;10453;50.810;12.540;2023-10-09T21:38:08;15.20;99.90
20590;DHT22;10453;50.810;12.540;2023-10-09T21:42:25;15.20;99.90
20590;DHT22;10453;50.810;12.540;2023-10-09T21:46:42;15.20;99.90
20590;DHT22;10453;50.810;12.540;2023-10-09T21:51:00;15.20;99.90
20590;DHT22;10453;50.810;12.540;2023-10-09T21:55:17;15.20;99.90
20590;DHT22;10453;50.810;12.540;2023-10-09T21:59:34;15.30;99.90
20590;DHT22;10453;50.810;12.540;2023-10-09T22:03:52;15.30;99.90
20590;DHT22;10453;50.810;12.540;2023-10-09T22:08:12;15.30;99.90
20590;DHT22;10453;50.810;12.540;2023-10-09T22:12:29;15.30;99.90
20590;DHT22;10453;50.810;12.540;2023-10-09T22:16:48;15.30;99.90
20590;DHT22;10453;50.810;12.540;2023-10-09T22:21:06;15.30;99.90
20590;DHT22;10453;50.810;12.540;2023-10-09T22:25:27;15.30;99.90
20590;DHT22;10453;50.810;12.540;2023-10-09T22:29:47;15.20;99.90
20590;DHT22;10453;50.810;12.540;2023-10-09T22:34:09;15.30;99.90
20590;DHT22;10453;50.810;12.540;2023-10-09T22:38:29;15.30;99.90
20590;DHT22;10453;50.810;12.540;2023-10-09T22:42:47;15.30;99.90
20590;DHT22;10453;50.810;12.540;2023-10-09T22:47:06;15.30;99.90
20590;DHT22;10453;50.810;12.540;2023-10-09T22:51:26;15.30;99.90
20590;DHT22;10453;50.810;12.540;2023-10-09T22:55:48;15.30;99.90
20590;DHT22;10453;50.810;12.540;2023-10-09T23:00:09;15.30;99.90
20590;DHT22;10453;50.810;12.540;2023-10-09T23:04:45;15.30;99.90
20590;DHT22;10453;50.810;12.540;2023-10-09T23:09:07;15.30;99.90
20590;DHT22;10453;50.810;12.540;2023-10-09T23:13:33;15.30;99.90
20590;DHT22;10453;50.810;12.540;2023-10-09T23:17:54;15.40;99.90
20590;DHT22;10453;50.810;12.540;2023-10-09T23:22:19;15.40;99.90
20590;DHT22;10453;50.810;12.540;2023-10-09T23:26:57;15.50;99.90
20590;DHT22;10453;50.810;12.540;2023-10-09T23:31:15;15.40;99.90
20590;DHT22;10453;50.810;12.540;2023-10-09T23:35:53;15.50;99.90
20590;DHT22;10453;50.810;12.540;2023-10-09T23:40:23;15.50;99.90
20590;DHT22;10453;50.810;12.540;2023-10-09T23:44:55;15.40;99.90
20590;DHT22;10453;50.810;12.540;2023-10-09T23:49:22;15.30;99.90
20590;DHT22;10453;50.810;12.540;2023-10-09T23:53:41;15.40;99.90
20590;DHT22;10453;50.810;12.540;2023-10-09T23:58:03;15.30;99.90
